createdAt,value
2022-08-30T00:00:22.973Z,72.48
2022-08-30T00:01:29.940Z,72.90
2022-08-30T00:02:34.854Z,73.11
2022-08-30T00:03:45.269Z,73.11
2022-08-30T00:04:49.505Z,73.12
2022-08-30T00:05:54.416Z,73.31
2022-08-30T00:07:00.747Z,73.31
2022-08-30T00:08:04.841Z,73.67
2022-08-30T00:09:08.883Z,73.67
2022-08-30T00:10:15.195Z,73.40
2022-08-30T00:11:26.459Z,73.40
2022-08-30T00:12:30.598Z,73.95
2022-08-30T00:13:34.628Z,73.48
2022-08-30T00:14:38.691Z,73.89
2022-08-30T00:15:45.877Z,73.56
2022-08-30T00:17:01.554Z,73.56
2022-08-30T00:18:02.472Z,73.66
2022-08-30T00:19:10.853Z,73.66
2022-08-30T00:20:18.315Z,73.55
2022-08-30T00:22:32.012Z,74.13
2022-08-30T00:23:36.141Z,73.81
2022-08-30T00:24:42.723Z,73.81
2022-08-30T00:25:46.058Z,73.98
2022-08-30T00:26:51.870Z,73.98
2022-08-30T00:27:57.534Z,74.31
2022-08-30T00:29:03.624Z,73.71
2022-08-30T00:30:09.458Z,74.30
2022-08-30T00:31:15.546Z,74.30
2022-08-30T00:32:19.480Z,73.78
2022-08-30T00:33:23.689Z,73.90
2022-08-30T00:34:29.207Z,73.59
2022-08-30T00:35:33.696Z,73.32
2022-08-30T00:36:41.971Z,74.42
2022-08-30T00:37:48.805Z,74.57
2022-08-30T00:38:54.504Z,74.57
2022-08-30T00:39:58.648Z,74.22
2022-08-30T00:41:02.916Z,74.13
2022-08-30T00:42:07.736Z,74.73
2022-08-30T00:43:19.486Z,74.73
2022-08-30T00:44:23.769Z,74.28
2022-08-30T00:45:30.836Z,74.39
2022-08-30T00:46:35.183Z,74.56
2022-08-30T00:47:39.302Z,74.53
2022-08-30T00:48:46.363Z,74.53
2022-08-30T00:49:53.562Z,74.67
2022-08-30T00:51:00.667Z,74.59
2022-08-30T00:52:08.766Z,74.59
2022-08-30T00:53:15.649Z,74.58
2022-08-30T00:54:20.327Z,74.58
2022-08-30T00:55:24.646Z,75.26
2022-08-30T00:56:30.784Z,75.36
2022-08-30T00:57:36.778Z,75.20
2022-08-30T00:58:43.735Z,75.56
2022-08-30T00:59:49.966Z,75.56
2022-08-30T01:00:57.412Z,75.65
2022-08-30T01:02:03.081Z,75.65
2022-08-30T01:03:07.129Z,75.20
2022-08-30T01:04:12.664Z,75.22
2022-08-30T01:05:16.997Z,75.38
2022-08-30T01:06:22.799Z,75.50
2022-08-30T01:07:26.779Z,75.50
2022-08-30T01:08:32.378Z,75.50
2022-08-30T01:09:37.394Z,75.50
2022-08-30T01:10:42.009Z,75.53
2022-08-30T01:11:47.964Z,75.52
2022-08-30T01:12:53.559Z,75.36
2022-08-30T01:13:58.787Z,75.63
2022-08-30T01:15:04.406Z,75.91
2022-08-30T01:16:09.336Z,75.91
2022-08-30T01:17:15.969Z,75.70
2022-08-30T01:18:22.177Z,75.79
2022-08-30T01:19:45.775Z,75.79
2022-08-30T01:21:15.569Z,75.78
2022-08-30T01:22:52.479Z,76.28
2022-08-30T01:23:59.101Z,76.28
2022-08-30T01:25:05.102Z,76.26
2022-08-30T01:26:13.227Z,76.26
2022-08-30T01:27:19.845Z,76.08
2022-08-30T01:28:29.175Z,76.08
2022-08-30T01:29:33.842Z,76.75
2022-08-30T01:30:40.488Z,77.19
2022-08-30T01:31:44.556Z,77.19
2022-08-30T01:32:48.599Z,77.11
2022-08-30T01:33:52.643Z,77.11
2022-08-30T01:34:58.063Z,77.29
2022-08-30T01:36:05.109Z,77.86
2022-08-30T01:37:09.135Z,77.27
2022-08-30T01:38:14.550Z,77.27
2022-08-30T01:39:20.153Z,77.40
2022-08-30T01:40:24.537Z,77.40
2022-08-30T01:41:31.312Z,77.50
2022-08-30T01:42:35.843Z,77.49
2022-08-30T01:43:40.550Z,77.71
2022-08-30T01:44:47.166Z,77.52
2022-08-30T01:45:51.230Z,77.49
2022-08-30T01:46:58.019Z,77.49
2022-08-30T01:48:02.686Z,78.32
2022-08-30T01:49:12.375Z,78.28
2022-08-30T01:50:17.528Z,78.28
2022-08-30T01:51:23.607Z,78.07
2022-08-30T01:52:28.526Z,77.95
2022-08-30T01:53:33.334Z,78.12
2022-08-30T01:55:13.123Z,78.12
2022-08-30T01:57:10.906Z,78.06
2022-08-30T01:58:50.775Z,78.46
2022-08-30T02:00:30.650Z,78.46
2022-08-30T02:02:10.923Z,78.72
2022-08-30T02:03:51.140Z,79.00
2022-08-30T02:05:31.384Z,79.00
2022-08-30T02:06:35.808Z,79.09
2022-08-30T02:07:39.897Z,79.70
2022-08-30T02:08:44.893Z,79.27
2022-08-30T02:09:49.508Z,79.27
2022-08-30T02:10:53.564Z,79.84
2022-08-30T02:12:00.279Z,79.79
2022-08-30T02:13:05.878Z,79.79
2022-08-30T02:14:12.099Z,79.56
2022-08-30T02:15:16.837Z,79.67
2022-08-30T02:16:23.622Z,79.67
2022-08-30T02:17:27.902Z,79.95
2022-08-30T02:18:34.312Z,80.26
2022-08-30T02:19:39.234Z,80.26
2022-08-30T02:20:43.411Z,80.24
2022-08-30T02:21:47.411Z,80.11
2022-08-30T02:22:51.647Z,80.11
2022-08-30T02:23:56.075Z,80.28
2022-08-30T02:25:00.210Z,80.04
2022-08-30T02:26:08.395Z,80.04
2022-08-30T02:27:11.609Z,80.50
2022-08-30T02:28:15.667Z,80.57
2022-08-30T02:29:23.058Z,80.35
2022-08-30T02:30:30.833Z,80.35
2022-08-30T02:31:35.686Z,80.73
2022-08-30T02:32:39.854Z,80.73
2022-08-30T02:33:44.014Z,80.88
2022-08-30T02:34:49.602Z,80.94
2022-08-30T02:35:54.631Z,81.53
2022-08-30T02:36:58.777Z,81.53
2022-08-30T02:38:06.401Z,81.67
2022-08-30T02:39:13.615Z,81.67
2022-08-30T02:40:19.612Z,81.42
2022-08-30T02:41:25.480Z,81.47
2022-08-30T02:42:29.611Z,81.47
2022-08-30T02:43:33.679Z,81.45
2022-08-30T02:44:39.248Z,81.75
2022-08-30T02:45:43.460Z,81.75
2022-08-30T02:46:47.566Z,81.82
2022-08-30T02:47:51.680Z,81.51
2022-08-30T02:48:55.750Z,81.75
2022-08-30T02:50:04.006Z,81.75
2022-08-30T02:51:14.054Z,82.11
2022-08-30T02:52:18.110Z,81.87
2022-08-30T02:53:22.859Z,81.87
2022-08-30T02:54:27.000Z,82.08
2022-08-30T02:55:31.222Z,82.20
2022-08-30T02:56:36.951Z,82.07
2022-08-30T02:59:31.166Z,82.52
2022-08-30T03:00:21.786Z,82.72
2022-08-30T03:01:29.231Z,82.72
2022-08-30T03:02:31.285Z,82.31
2022-08-30T03:03:36.170Z,82.31
2022-08-30T03:04:41.233Z,82.45
2022-08-30T03:05:45.375Z,82.27
2022-08-30T03:06:51.147Z,82.27
2022-08-30T03:07:55.223Z,82.73
2022-08-30T03:08:59.367Z,82.57
2022-08-30T03:10:03.545Z,82.57
2022-08-30T03:11:07.663Z,83.24
2022-08-30T03:12:11.906Z,82.84
2022-08-30T03:13:16.173Z,82.84
2022-08-30T03:14:21.918Z,83.27
2022-08-30T03:15:26.201Z,83.06
2022-08-30T03:16:33.433Z,83.06
2022-08-30T03:17:52.603Z,83.68
2022-08-30T03:18:50.631Z,83.35
2022-08-30T03:19:59.499Z,83.35
2022-08-30T03:21:03.572Z,83.36
2022-08-30T03:22:08.571Z,83.05
2022-08-30T03:23:21.873Z,83.14
2022-08-30T03:24:25.727Z,83.14
2022-08-30T03:25:29.859Z,83.14
2022-08-30T03:26:37.448Z,82.30
2022-08-30T03:27:43.300Z,81.87
2022-08-30T03:28:52.617Z,82.34
2022-08-30T03:30:07.413Z,82.34
2022-08-30T03:31:24.674Z,81.00
2022-08-30T03:32:27.233Z,80.92
2022-08-30T03:33:40.264Z,80.92
2022-08-30T03:34:42.702Z,79.65
2022-08-30T03:36:13.443Z,79.52
2022-08-30T03:37:38.252Z,79.52
2022-08-30T03:38:17.103Z,78.71
2022-08-30T03:40:34.698Z,77.57
2022-08-30T03:41:39.866Z,76.94
2022-08-30T03:42:49.620Z,76.22
2022-08-30T03:44:02.145Z,75.34
2022-08-30T03:47:46.747Z,73.79
2022-08-30T03:48:54.439Z,73.68
2022-08-30T03:50:00.137Z,73.68
2022-08-30T03:51:06.061Z,72.66
2022-08-30T03:52:10.355Z,71.61
2022-08-30T03:53:14.424Z,70.49
2022-08-30T03:54:18.960Z,70.42
2022-08-30T03:55:23.142Z,70.09
2022-08-30T03:56:29.100Z,69.82
2022-08-30T03:57:33.604Z,69.82
2022-08-30T03:58:39.345Z,69.14
2022-08-30T03:59:43.523Z,68.46
2022-08-30T04:00:49.045Z,67.94
2022-08-30T04:01:54.673Z,67.94
2022-08-30T04:03:03.367Z,66.74
2022-08-30T04:04:07.554Z,66.23
2022-08-30T04:05:12.976Z,66.23
2022-08-30T04:06:19.869Z,65.30
2022-08-30T04:07:27.396Z,65.30
2022-08-30T04:08:32.738Z,64.95
2022-08-30T04:09:46.562Z,64.95
2022-08-30T04:10:47.987Z,63.82
2022-08-30T04:11:53.814Z,63.49
2022-08-30T04:12:57.850Z,63.49
2022-08-30T04:14:03.386Z,62.81
2022-08-30T04:15:12.522Z,62.48
2022-08-30T04:16:19.074Z,62.02
2022-08-30T04:17:23.060Z,61.65
2022-08-30T04:18:31.308Z,61.07
2022-08-30T04:20:02.727Z,60.71
2022-08-30T04:21:55.896Z,60.21
2022-08-30T04:23:01.671Z,59.62
2022-08-30T04:24:05.894Z,60.11
2022-08-30T04:25:15.613Z,60.11
2022-08-30T04:26:19.087Z,59.04
2022-08-30T04:27:23.238Z,59.46
2022-08-30T04:28:28.830Z,59.02
2022-08-30T04:29:35.372Z,59.02
2022-08-30T04:30:43.900Z,58.89
2022-08-30T04:32:45.651Z,58.40
2022-08-30T04:33:27.788Z,58.40
2022-08-30T04:47:26.308Z,57.20
2022-08-30T04:48:30.272Z,56.93
2022-08-30T04:49:36.080Z,56.85
2022-08-30T04:50:40.588Z,56.85
2022-08-30T04:51:44.724Z,56.74
2022-08-30T04:52:48.945Z,56.25
2022-08-30T04:53:53.159Z,55.64
2022-08-30T04:54:58.703Z,55.64
2022-08-30T04:56:06.167Z,55.93
2022-08-30T04:57:10.317Z,55.79
2022-08-30T04:58:16.648Z,55.75
2022-08-30T04:59:20.745Z,55.75
2022-08-30T05:00:25.109Z,55.12
2022-08-30T05:01:44.918Z,55.14
2022-08-30T05:02:39.825Z,55.14
2022-08-30T05:03:43.925Z,55.22
2022-08-30T05:04:48.036Z,55.22
2022-08-30T05:05:52.298Z,56.15
2022-08-30T05:06:59.118Z,56.80
2022-08-30T05:08:03.465Z,56.80
2022-08-30T05:09:09.026Z,57.33
2022-08-30T05:10:13.341Z,58.96
2022-08-30T05:11:28.759Z,58.96
2022-08-30T05:12:29.425Z,59.80
2022-08-30T05:13:36.933Z,59.80
2022-08-30T05:15:09.602Z,60.29
2022-08-30T05:16:09.553Z,60.95
2022-08-30T05:17:18.401Z,61.43
2022-08-30T05:18:23.963Z,61.43
2022-08-30T05:19:32.062Z,62.36
2022-08-30T05:20:37.370Z,62.36
2022-08-30T05:23:11.766Z,63.29
2022-08-30T05:24:32.269Z,64.09
2022-08-30T05:25:28.227Z,64.34
2022-08-30T05:27:54.172Z,65.44
2022-08-30T05:29:27.637Z,65.44
2022-08-30T05:30:15.682Z,66.29
2022-08-30T05:31:25.615Z,66.51
2022-08-30T05:32:34.822Z,66.51
2022-08-30T05:33:40.521Z,67.47
2022-08-30T05:34:44.574Z,67.47
2022-08-30T05:35:48.627Z,68.45
2022-08-30T05:36:52.899Z,68.45
2022-08-30T05:37:57.102Z,69.31
2022-08-30T05:39:05.855Z,69.31
2022-08-30T05:40:12.105Z,69.46
2022-08-30T05:41:17.772Z,69.46
2022-08-30T05:42:22.690Z,68.73
2022-08-30T05:43:26.847Z,68.97
2022-08-30T05:44:34.505Z,68.97
2022-08-30T05:45:41.305Z,69.41
2022-08-30T05:46:46.840Z,69.90
2022-08-30T05:47:52.788Z,69.65
2022-08-30T05:48:57.709Z,69.65
2022-08-30T05:50:01.832Z,70.29
2022-08-30T05:51:16.760Z,70.30
2022-08-30T05:52:21.186Z,70.30
2022-08-30T05:53:25.384Z,69.91
2022-08-30T05:54:29.535Z,69.98
2022-08-30T05:55:33.586Z,70.22
2022-08-30T05:56:40.313Z,69.68
2022-08-30T05:57:44.273Z,69.68
2022-08-30T05:58:49.670Z,70.20
2022-08-30T05:59:57.575Z,70.10
2022-08-30T06:01:04.777Z,69.16
2022-08-30T06:02:08.797Z,69.22
2022-08-30T06:03:14.307Z,69.01
2022-08-30T06:04:18.389Z,69.01
2022-08-30T06:05:22.525Z,68.49
2022-08-30T06:06:29.719Z,68.64
2022-08-30T06:07:34.880Z,68.01
2022-08-30T06:08:38.878Z,67.90
2022-08-30T06:09:43.008Z,67.90
2022-08-30T06:10:47.138Z,68.15
2022-08-30T06:11:51.277Z,67.34
2022-08-30T06:12:55.329Z,67.34
2022-08-30T06:13:59.375Z,68.07
2022-08-30T06:15:06.705Z,67.63
2022-08-30T06:16:16.965Z,67.42
2022-08-30T06:17:21.312Z,68.03
2022-08-30T06:18:28.763Z,67.91
2022-08-30T06:19:33.067Z,67.71
2022-08-30T06:20:42.499Z,67.57
2022-08-30T06:21:48.745Z,67.93
2022-08-30T06:22:54.291Z,67.21
2022-08-30T06:24:01.132Z,68.05
2022-08-30T06:25:08.644Z,68.05
2022-08-30T06:26:14.792Z,67.49
2022-08-30T06:27:21.906Z,67.49
2022-08-30T06:28:25.983Z,67.31
2022-08-30T06:29:30.049Z,67.06
2022-08-30T06:30:36.021Z,67.21
2022-08-30T06:31:41.876Z,66.25
2022-08-30T06:32:47.400Z,65.95
2022-08-30T06:33:51.814Z,65.43
2022-08-30T06:34:55.876Z,65.43
2022-08-30T06:36:08.678Z,65.59
2022-08-30T06:37:29.098Z,65.22
2022-08-30T06:38:18.628Z,65.22
2022-08-30T06:39:22.702Z,64.09
2022-08-30T06:40:27.594Z,64.27
2022-08-30T06:41:35.850Z,63.25
2022-08-30T06:42:40.650Z,62.85
2022-08-30T06:43:48.827Z,62.85
2022-08-30T06:44:50.486Z,62.42
2022-08-30T06:45:57.333Z,61.94
2022-08-30T06:47:03.186Z,61.53
2022-08-30T06:48:07.480Z,60.89
2022-08-30T06:49:11.546Z,61.07
2022-08-30T06:50:18.263Z,60.82
2022-08-30T06:51:27.692Z,59.92
2022-08-30T06:52:31.905Z,59.92
2022-08-30T06:53:36.769Z,59.95
2022-08-30T06:54:41.061Z,59.95
2022-08-30T06:55:45.064Z,59.44
2022-08-30T06:56:58.271Z,59.06
2022-08-30T06:57:54.938Z,58.45
2022-08-30T06:58:59.549Z,58.49
2022-08-30T07:00:05.104Z,58.49
2022-08-30T07:01:15.111Z,58.01
2022-08-30T07:02:19.172Z,57.79
2022-08-30T07:03:23.948Z,57.17
2022-08-30T07:04:30.605Z,56.34
2022-08-30T07:05:36.248Z,56.67
2022-08-30T07:06:40.328Z,56.67
2022-08-30T07:07:45.496Z,56.53
2022-08-30T07:08:56.966Z,56.46
2022-08-30T07:09:59.538Z,55.80
2022-08-30T07:11:03.476Z,55.99
2022-08-30T07:12:07.627Z,55.90
2022-08-30T07:13:12.366Z,55.79
2022-08-30T07:14:17.906Z,55.58
2022-08-30T07:15:22.074Z,54.95
2022-08-30T07:16:30.120Z,54.95
2022-08-30T07:17:35.473Z,54.82
2022-08-30T07:18:43.643Z,54.44
2022-08-30T07:19:49.447Z,54.44
2022-08-30T07:20:55.060Z,54.49
2022-08-30T07:21:59.160Z,54.69
2022-08-30T07:23:04.866Z,54.69
2022-08-30T07:24:08.988Z,54.13
2022-08-30T07:25:13.395Z,54.51
2022-08-30T07:26:21.994Z,54.30
2022-08-30T07:27:26.168Z,54.30
2022-08-30T07:28:30.318Z,53.56
2022-08-30T07:29:34.385Z,53.90
2022-08-30T07:30:40.790Z,53.64
2022-08-30T07:31:45.179Z,53.33
2022-08-30T07:32:50.775Z,53.33
2022-08-30T07:33:55.675Z,52.80
2022-08-30T07:35:04.543Z,52.44
2022-08-30T07:36:38.728Z,52.44
2022-08-30T07:37:30.368Z,52.97
2022-08-30T07:38:30.236Z,53.07
2022-08-30T07:39:39.748Z,52.55
2022-08-30T07:40:41.303Z,52.66
2022-08-30T07:41:46.105Z,52.78
2022-08-30T07:42:52.161Z,53.38
2022-08-30T07:43:57.273Z,52.80
2022-08-30T07:45:01.352Z,53.27
2022-08-30T07:46:08.398Z,52.24
2022-08-30T07:47:15.750Z,52.24
2022-08-30T07:48:21.758Z,51.42
2022-08-30T07:49:27.338Z,52.02
2022-08-30T07:50:33.632Z,52.53
2022-08-30T07:51:39.801Z,52.53
2022-08-30T07:52:43.545Z,51.22
2022-08-30T07:53:47.984Z,51.22
2022-08-30T07:54:52.976Z,51.77
2022-08-30T07:55:59.860Z,51.58
2022-08-30T07:57:02.806Z,50.54
2022-08-30T07:58:14.027Z,50.33
2022-08-30T07:59:12.858Z,50.66
2022-08-30T08:00:20.482Z,49.75
2022-08-30T08:01:24.143Z,50.33
2022-08-30T08:02:28.569Z,49.85
2022-08-30T08:03:32.857Z,49.41
2022-08-30T08:04:36.997Z,49.41
2022-08-30T08:05:45.840Z,49.23
2022-08-30T08:06:49.964Z,49.19
2022-08-30T08:07:57.731Z,48.97
2022-08-30T08:09:04.882Z,48.79
2022-08-30T08:10:09.877Z,48.99
2022-08-30T08:11:16.988Z,48.99
2022-08-30T08:12:21.196Z,49.18
2022-08-30T08:13:27.986Z,49.18
2022-08-30T08:14:36.070Z,48.96
2022-08-30T08:15:40.243Z,48.39
2022-08-30T08:16:44.363Z,47.98
2022-08-30T08:17:48.477Z,47.89
2022-08-30T08:18:55.368Z,47.89
2022-08-30T08:20:00.796Z,48.83
2022-08-30T08:21:12.441Z,48.83
2022-08-30T08:23:13.281Z,48.42
2022-08-30T08:23:20.615Z,48.42
2022-08-30T08:24:29.777Z,47.22
2022-08-30T08:25:37.737Z,46.45
2022-08-30T08:26:45.528Z,47.69
2022-08-30T08:27:51.185Z,47.89
2022-08-30T08:29:08.552Z,47.89
2022-08-30T08:30:05.503Z,46.73
2022-08-30T08:31:17.373Z,46.73
2022-08-30T08:32:23.428Z,46.09
2022-08-30T08:33:30.150Z,46.77
2022-08-30T08:34:49.318Z,46.77
2022-08-30T08:36:07.470Z,46.21
2022-08-30T08:37:00.748Z,45.03
2022-08-30T08:38:05.290Z,45.03
2022-08-30T08:39:10.091Z,44.44
2022-08-30T08:40:18.978Z,44.44
2022-08-30T08:41:48.775Z,44.02
2022-08-30T08:43:04.815Z,43.11
2022-08-30T08:44:22.207Z,43.11
2022-08-30T08:45:47.134Z,44.30
2022-08-30T08:46:56.064Z,44.88
2022-08-30T08:48:18.190Z,44.88
2022-08-30T08:49:22.501Z,44.34
2022-08-30T08:50:26.916Z,44.34
2022-08-30T08:51:36.365Z,44.36
2022-08-30T08:52:47.755Z,44.26
2022-08-30T08:53:57.644Z,44.26
2022-08-30T08:55:04.846Z,43.64
2022-08-30T08:56:16.123Z,43.64
2022-08-30T08:57:24.505Z,42.82
2022-08-30T08:58:31.950Z,43.57
2022-08-30T08:59:36.730Z,42.21
2022-08-30T09:00:47.678Z,40.96
2022-08-30T09:01:48.674Z,41.52
2022-08-30T09:03:01.812Z,41.52
2022-08-30T09:04:14.994Z,41.40
2022-08-30T09:05:22.344Z,40.79
2022-08-30T09:06:46.070Z,41.40
2022-08-30T09:07:56.299Z,41.40
2022-08-30T09:09:00.441Z,41.33
2022-08-30T09:10:06.439Z,41.55
2022-08-30T09:11:13.960Z,40.83
2022-08-30T09:12:18.088Z,41.04
2022-08-30T09:13:24.952Z,41.04
2022-08-30T09:14:57.481Z,41.23
2022-08-30T09:16:09.683Z,41.81
2022-08-30T09:17:14.639Z,41.39
2022-08-30T09:20:04.844Z,41.68
2022-08-30T09:21:21.700Z,40.92
2022-08-30T09:22:30.012Z,40.39
2022-08-30T09:23:36.080Z,40.39
2022-08-30T09:24:44.530Z,40.33
2022-08-30T09:26:26.941Z,40.34
2022-08-30T09:27:30.713Z,39.79
2022-08-30T09:28:44.337Z,39.64
2022-08-30T09:29:55.176Z,39.52
2022-08-30T09:31:07.769Z,39.52
2022-08-30T09:32:25.131Z,39.39
2022-08-30T09:33:21.582Z,39.63
2022-08-30T09:34:32.229Z,38.97
2022-08-30T09:35:50.911Z,39.45
2022-08-30T09:36:56.848Z,38.92
2022-08-30T09:38:11.361Z,38.92
2022-08-30T09:39:20.543Z,40.40
2022-08-30T09:40:43.611Z,39.21
2022-08-30T09:41:50.827Z,39.21
2022-08-30T09:43:13.663Z,37.39
2022-08-30T09:44:27.671Z,37.15
2022-08-30T09:45:34.659Z,37.10
2022-08-30T09:46:47.537Z,37.25
2022-08-30T09:47:51.695Z,37.25
2022-08-30T09:49:20.426Z,36.92
2022-08-30T09:50:14.810Z,37.99
2022-08-30T09:51:43.128Z,37.18
2022-08-30T09:53:06.026Z,36.64
2022-08-30T09:54:18.341Z,37.19
2022-08-30T09:55:51.471Z,37.48
2022-08-30T09:57:12.491Z,37.15
2022-08-30T09:58:26.785Z,36.81
2022-08-30T09:59:39.424Z,37.03
2022-08-30T10:00:55.157Z,37.03
2022-08-30T10:02:32.938Z,37.26
2022-08-30T10:03:35.242Z,36.84
2022-08-30T10:04:38.337Z,35.87
2022-08-30T10:06:18.205Z,35.87
2022-08-30T10:07:46.100Z,34.66
2022-08-30T10:09:00.462Z,34.66
2022-08-30T10:10:19.369Z,35.84
2022-08-30T10:11:39.433Z,35.84
2022-08-30T10:13:19.581Z,36.21
2022-08-30T10:14:37.078Z,36.58
2022-08-30T10:15:48.411Z,36.58
2022-08-30T10:17:17.328Z,37.17
2022-08-30T10:18:39.397Z,37.97
2022-08-30T10:19:46.455Z,37.97
2022-08-30T10:20:56.273Z,36.40
2022-08-30T10:22:08.204Z,36.40
2022-08-30T10:23:14.945Z,36.78
2022-08-30T10:24:21.919Z,37.80
2022-08-30T10:25:45.280Z,37.80
2022-08-30T10:26:59.734Z,36.59
2022-08-30T10:28:13.314Z,36.33
2022-08-30T10:29:40.628Z,36.62
2022-08-30T10:30:50.482Z,37.30
2022-08-30T10:33:06.139Z,37.63
2022-08-30T10:33:14.878Z,37.63
2022-08-30T10:34:39.096Z,38.17
2022-08-30T10:35:56.538Z,37.53
2022-08-30T10:37:14.044Z,37.46
2022-08-30T10:38:29.938Z,37.94
2022-08-30T10:40:02.433Z,37.94
2022-08-30T10:41:05.756Z,37.26
2022-08-30T10:42:11.576Z,36.65
2022-08-30T10:43:33.697Z,36.65
2022-08-30T10:44:44.166Z,36.97
2022-08-30T10:45:50.559Z,36.42
2022-08-30T10:47:23.033Z,36.42
2022-08-30T10:48:33.385Z,36.84
2022-08-30T10:49:40.810Z,35.11
2022-08-30T10:50:53.950Z,34.99
2022-08-30T10:52:21.914Z,34.99
2022-08-30T10:53:48.512Z,35.91
2022-08-30T10:55:03.494Z,37.24
2022-08-30T10:56:15.372Z,36.65
2022-08-30T10:57:23.093Z,36.57
2022-08-30T10:58:31.056Z,36.32
2022-08-30T10:59:43.869Z,36.95
2022-08-30T11:01:14.781Z,37.19
2022-08-30T11:02:53.362Z,37.34
2022-08-30T11:04:24.136Z,36.54
2022-08-30T11:05:49.143Z,35.78
2022-08-30T11:07:08.084Z,35.58
2022-08-30T11:08:39.178Z,35.58
2022-08-30T11:10:01.349Z,36.51
2022-08-30T11:11:18.494Z,36.21
2022-08-30T11:12:55.547Z,36.21
2022-08-30T11:14:05.603Z,36.46
2022-08-30T11:15:25.155Z,36.13
2022-08-30T11:16:38.482Z,36.47
2022-08-30T11:18:00.048Z,36.47
2022-08-30T11:19:06.578Z,36.63
2022-08-30T11:20:23.219Z,36.63
2022-08-30T11:21:37.323Z,36.45
2022-08-30T11:22:44.835Z,38.03
2022-08-30T11:24:15.186Z,38.03
2022-08-30T11:25:38.913Z,37.21
2022-08-30T11:26:53.614Z,37.21
2022-08-30T11:28:00.048Z,37.74
2022-08-30T11:29:07.400Z,37.74
2022-08-30T11:30:33.036Z,37.98
2022-08-30T11:31:45.269Z,37.37
2022-08-30T11:33:07.931Z,37.37
2022-08-30T11:34:15.041Z,36.55
2022-08-30T11:35:48.441Z,35.80
2022-08-30T11:36:55.300Z,35.80
2022-08-30T11:38:03.517Z,37.54
2022-08-30T11:39:10.546Z,37.23
2022-08-30T11:40:24.811Z,36.81
2022-08-30T11:41:43.255Z,36.57
2022-08-30T11:42:49.915Z,36.24
2022-08-30T11:43:58.202Z,35.88
2022-08-30T11:45:26.745Z,35.29
2022-08-30T11:46:40.099Z,35.30
2022-08-30T11:47:47.054Z,35.13
2022-08-30T11:48:55.948Z,36.93
2022-08-30T11:50:10.995Z,36.93
2022-08-30T11:51:32.664Z,36.38
2022-08-30T11:52:48.805Z,35.93
2022-08-30T11:55:42.112Z,36.62
2022-08-30T11:56:53.651Z,36.44
2022-08-30T11:58:06.905Z,36.57
2022-08-30T11:59:29.060Z,36.08
2022-08-30T12:00:38.418Z,36.08
2022-08-30T12:01:51.997Z,34.80
2022-08-30T12:02:56.469Z,35.48
2022-08-30T12:04:15.312Z,35.48
2022-08-30T12:05:41.159Z,35.31
2022-08-30T12:06:58.276Z,35.31
2022-08-30T12:08:09.956Z,35.25
2022-08-30T12:09:14.044Z,35.25
2022-08-30T12:10:25.621Z,36.66
2022-08-30T12:11:38.334Z,36.62
2022-08-30T12:12:49.221Z,36.25
2022-08-30T12:13:56.208Z,36.25
2022-08-30T12:15:00.357Z,37.21
2022-08-30T12:16:26.190Z,36.03
2022-08-30T12:17:53.668Z,36.03
2022-08-30T12:19:03.294Z,36.62
2022-08-30T12:20:25.595Z,37.08
2022-08-30T12:21:43.746Z,37.08
2022-08-30T12:22:39.773Z,37.72
2022-08-30T12:24:07.430Z,37.41
2022-08-30T12:25:29.157Z,37.55
2022-08-30T12:26:36.639Z,37.55
2022-08-30T12:27:40.648Z,38.05
2022-08-30T12:28:47.671Z,38.05
2022-08-30T12:29:54.486Z,37.69
2022-08-30T12:31:06.423Z,38.24
2022-08-30T12:32:24.252Z,37.71
2022-08-30T12:33:41.836Z,37.71
2022-08-30T12:34:45.349Z,38.38
2022-08-30T12:35:49.804Z,38.38
2022-08-30T12:36:59.755Z,38.95
2022-08-30T12:38:06.880Z,37.70
2022-08-30T12:39:13.857Z,38.36
2022-08-30T12:40:22.248Z,38.47
2022-08-30T12:41:31.464Z,38.40
2022-08-30T12:42:39.275Z,38.40
2022-08-30T12:43:46.330Z,38.79
2022-08-30T12:44:57.344Z,38.58
2022-08-30T12:46:07.485Z,39.02
2022-08-30T12:47:15.097Z,39.02
2022-08-30T12:48:51.920Z,38.01
2022-08-30T12:49:48.787Z,37.93
2022-08-30T12:50:58.159Z,37.16
2022-08-30T12:52:33.511Z,37.21
2022-08-30T12:53:51.261Z,37.79
2022-08-30T12:55:20.928Z,37.72
2022-08-30T12:56:02.819Z,36.77
2022-08-30T12:57:32.038Z,37.83
2022-08-30T12:58:17.748Z,37.83
2022-08-30T12:59:48.841Z,37.39
2022-08-30T13:00:51.710Z,37.19
2022-08-30T13:01:57.468Z,36.98
2022-08-30T13:03:16.412Z,37.25
2022-08-30T13:04:20.674Z,37.25
2022-08-30T13:05:42.960Z,36.81
2022-08-30T13:06:52.796Z,36.81
2022-08-30T13:08:13.084Z,37.23
2022-08-30T13:09:32.316Z,36.93
2022-08-30T13:10:44.702Z,36.93
2022-08-30T13:11:46.357Z,35.64
2022-08-30T13:12:59.328Z,35.64
2022-08-30T13:14:27.297Z,36.33
2022-08-30T13:15:34.433Z,37.10
2022-08-30T13:16:45.044Z,36.76
2022-08-30T13:17:45.729Z,37.75
2022-08-30T13:18:52.007Z,37.75
2022-08-30T13:20:04.463Z,36.71
2022-08-30T13:21:24.166Z,36.37
2022-08-30T13:22:38.408Z,36.37
2022-08-30T13:23:42.505Z,36.82
2022-08-30T13:24:47.871Z,37.54
2022-08-30T13:25:54.761Z,37.21
2022-08-30T13:27:06.749Z,37.26
2022-08-30T13:28:12.516Z,37.72
2022-08-30T13:29:21.459Z,37.72
2022-08-30T13:30:26.689Z,37.41
2022-08-30T13:31:32.138Z,37.41
2022-08-30T13:32:38.966Z,37.57
2022-08-30T13:33:49.598Z,37.57
2022-08-30T13:34:53.736Z,37.49
2022-08-30T13:36:14.699Z,37.68
2022-08-30T13:37:07.049Z,38.15
2022-08-30T13:38:14.816Z,37.89
2022-08-30T13:39:21.752Z,37.57
2022-08-30T13:40:25.193Z,38.08
2022-08-30T13:41:30.157Z,37.07
2022-08-30T13:42:37.880Z,37.07
2022-08-30T13:44:51.198Z,36.87
2022-08-30T13:45:57.036Z,36.07
2022-08-30T13:48:11.360Z,37.05
2022-08-30T13:50:31.753Z,36.66
2022-08-30T13:51:36.657Z,36.66
2022-08-30T13:52:41.116Z,36.31
2022-08-30T13:53:54.418Z,37.22
2022-08-30T13:54:56.888Z,36.27
2022-08-30T13:56:03.119Z,36.90
2022-08-30T13:57:07.299Z,36.77
2022-08-30T13:58:14.087Z,36.57
2022-08-30T13:59:20.452Z,37.28
2022-08-30T14:00:27.677Z,37.28
2022-08-30T14:02:07.313Z,36.80
2022-08-30T14:02:44.311Z,36.80
2022-08-30T14:04:56.875Z,37.78
2022-08-30T14:06:29.508Z,37.78
2022-08-30T14:07:14.093Z,37.18
2022-08-30T14:09:23.105Z,37.05
2022-08-30T14:10:30.856Z,36.82
2022-08-30T14:11:35.665Z,36.72
2022-08-30T14:13:04.812Z,37.13
2022-08-30T14:14:58.958Z,37.31
2022-08-30T14:17:13.205Z,37.80
2022-08-30T14:18:22.478Z,37.80
2022-08-30T14:19:26.571Z,36.13
2022-08-30T14:20:47.556Z,36.40
2022-08-30T14:21:43.139Z,36.27
2022-08-30T14:22:50.402Z,36.23
2022-08-30T14:24:00.226Z,36.23
2022-08-30T14:25:04.788Z,36.76
2022-08-30T14:26:20.879Z,37.25
2022-08-30T14:27:24.999Z,36.81
2022-08-30T14:28:34.096Z,36.89
2022-08-30T14:29:38.970Z,36.89
2022-08-30T14:30:47.000Z,36.78
2022-08-30T14:31:55.834Z,36.78
2022-08-30T14:33:01.924Z,36.73
2022-08-30T14:34:08.656Z,36.40
2022-08-30T14:35:12.940Z,36.40
2022-08-30T14:36:20.198Z,37.56
2022-08-30T14:37:27.549Z,37.56
2022-08-30T14:38:41.278Z,36.71
2022-08-30T14:39:52.639Z,37.30
2022-08-30T14:40:51.998Z,37.30
2022-08-30T14:42:07.491Z,37.12
2022-08-30T14:43:16.552Z,37.34
2022-08-30T14:44:20.165Z,37.78
2022-08-30T14:45:27.284Z,37.78
2022-08-30T14:46:33.158Z,37.50
2022-08-30T14:47:57.317Z,37.55
2022-08-30T14:49:05.936Z,37.55
2022-08-30T14:50:12.171Z,37.50
2022-08-30T14:52:33.044Z,38.09
2022-08-30T14:53:38.766Z,37.38
2022-08-30T14:54:44.921Z,37.68
2022-08-30T14:55:50.417Z,37.55
2022-08-30T14:56:59.603Z,38.29
2022-08-30T14:58:04.093Z,39.39
2022-08-30T14:59:10.149Z,38.49
2022-08-30T15:00:16.621Z,38.49
2022-08-30T15:01:21.920Z,37.96
2022-08-30T15:02:29.977Z,37.96
2022-08-30T15:03:38.534Z,38.44
2022-08-30T15:04:44.113Z,37.86
2022-08-30T15:05:53.040Z,38.16
2022-08-30T15:06:57.456Z,37.51
2022-08-30T15:08:03.199Z,37.79
2022-08-30T15:09:11.195Z,37.79
2022-08-30T15:10:17.793Z,37.51
2022-08-30T15:12:11.816Z,37.97
2022-08-30T15:12:31.369Z,37.97
2022-08-30T15:13:38.028Z,38.69
2022-08-30T15:14:46.703Z,38.69
2022-08-30T15:15:52.505Z,37.23
2022-08-30T15:17:00.121Z,38.21
2022-08-30T15:18:04.282Z,38.21
2022-08-30T15:19:11.529Z,37.59
2022-08-30T15:21:57.279Z,38.26
2022-08-30T15:22:55.979Z,37.75
2022-08-30T15:24:06.309Z,36.93
2022-08-30T15:25:49.247Z,36.45
2022-08-30T15:26:20.481Z,36.88